x

Diamond Shoals (41025) Wave Buoy

12:50am - Thu 27th Nov 2014 All times are EST. -5 hours from GMT.

  • Sig Wave height 7.9ft
  • Swell Direction
  • Peak Period 9s
  • Average Period 6s
  • Wind
    18mph, 22mph gusts
  • Air Temp 47°f
  • Sea Pressure 1017.9mb
  • Diamond Shoals
  • Diamond Shoals

More Historic Weather Station data

Upgrade to MSW Pro to gain access to the past 30 days of data for over 8000 Wavebouys and Weather Stations around the globe.

Join Pro

Comparision Forecast

View Surf forecast
   
Thu 11/27 12:50am 8ft 9s 6s 18 22 mph 1017.9mb 47f
Wed 11/26 11:50pm 9.5ft 10s 6s 20 27 mph 1017.6mb 48f
10:50pm 9.5ft 8s 6s 20 27 mph 1017.4mb 48f
9:50pm 10ft 9s 7s 20 27 mph 1016.4mb 50f
8:50pm 10.5ft 8s 6s 22 27 mph 1016.1mb 50f
7:50pm 10ft 9s 6s 22 29 mph 1014.7mb 50f
6:50pm 10ft 9s 6s 25 29 mph 1013mb 51f
5:50pm 10ft 9s 6s 25 31 mph 1011.1mb 51f
4:50pm 9.5ft 8s 6s 27 36 mph 1009.7mb 52f
3:50pm 10.5ft 9s 7s 22 27 mph 1007.9mb 57f
2:50pm 12ft 9s 7s 18 25 mph 1006.7mb 60f
1:50pm 12ft 8s 7s 16 20 mph 1005.8mb 62f
12:50pm 13.5ft 8s 7s 29 36 mph 1003.4mb 73f
11:50am  -   -   -  27 31 mph 1004.2mb 76f
10:50am 12.5ft 8s 7s 29 34 mph 1006.2mb 76f
9:50am 11ft 8s 6s 29 34 mph 1007mb 76f
8:50am 11ft 7s 6s 27 31 mph 1007.1mb 76f
7:50am 10ft 8s 6s 29 36 mph 1007.7mb 75f
6:50am 7ft 8s 5s 29 40 mph 1008.2mb 74f
5:50am 5ft 8s 6s 22 27 mph 1009.3mb 74f
4:50am 4.5ft 9s 6s 20 25 mph 1009.3mb 70f
3:50am 5ft 7s 6s 11 13 mph 1011.8mb 69f
2:50am 5ft 9s 6s 7
mph
1013.2mb 69f
1:50am 5ft 9s 6s 9 13 mph 1014.7mb 69f
12:50am 4.5ft 8s 6s 4 7 mph 1015.9mb 69f
Tue 11/25 11:50pm 4.5ft 8s 6s 13 16 mph 1016.7mb 69f
10:50pm 5ft 9s 6s  -  4 mph 1017.8mb 68f
9:50pm 5ft 9s 7s 13 16 mph 1017.6mb 65f
8:50pm 4.5ft 9s 6s 9 13 mph 1018.2mb 67f
7:50pm 5ft 8s 6s  -  4 mph 1018.7mb 67f
6:50pm 5ft 8s 7s 2 4 mph 1018.1mb 67f
5:50pm 5ft 7s 7s 4 7 mph 1017.5mb 67f
4:50pm 5ft 8s 7s  -  2 mph 1017.4mb 66f
3:50pm 5ft 8s 7s 7 11 mph 1018.3mb 68f
2:50pm 4.5ft 8s 6s 2 7 mph 1017.5mb 67f
1:50pm 5ft 8s 6s 11 16 mph 1016.3mb 69f
12:50pm 4.5ft 9s 6s 7 11 mph 1016.4mb 68f
11:50am 5.5ft 8s 6s 13 18 mph 1017mb 69f
10:50am 5ft 9s 6s 18 20 mph 1017.3mb 71f
9:50am 5.5ft 9s 6s 13 16 mph 1017.5mb 74f
8:50am 5.5ft 9s 6s 7 13 mph 1017.3mb 74f
7:50am 6ft 8s 6s 9 11 mph 1017mb 73f
6:50am 5.5ft 9s 6s 11 16 mph 1016.5mb 72f
5:50am 6ft 8s 6s 11 13 mph 1015.5mb 71f
4:50am 6ft 9s 6s 16 20 mph 1015.8mb 73f
3:50am 6ft 8s 6s 16 18 mph 1015.2mb 74f
2:50am 7ft 8s 6s 16 20 mph 1015.6mb 74f
1:50am 7ft 9s 6s 18 20 mph 1015.2mb 73f
12:50am 6.5ft 8s 6s 18 22 mph 1015.1mb 73f
Mon 11/24 11:50pm 7ft 9s 6s 18 20 mph 1014.5mb 72f
10:50pm 7.5ft 9s 6s 20 27 mph 1014.1mb 73f
9:50pm 8ft 9s 6s 22 27 mph 1014.5mb 74f
8:50pm 7.5ft 10s 6s 22 27 mph 1013.8mb 75f
7:50pm 7.5ft 9s 7s 18 22 mph 1013.6mb 75f
6:50pm 7ft 9s 7s 13 16 mph 1013.3mb 75f
5:50pm 7ft 9s 6s 18 22 mph 1013mb 75f
4:50pm 7ft 10s 6s 18 22 mph 1012.4mb 75f
3:50pm 7ft 10s 6s 18 20 mph 1012.2mb 75f
2:50pm 8ft 9s 6s 16 18 mph 1012.2mb 75f
1:50pm 9ft 9s 7s 16 18 mph 1012.1mb 75f
12:50pm 9ft 10s 7s 18 22 mph 1012.5mb 76f
11:50am 10ft 10s 7s 20 27 mph 1012.8mb 76f
10:50am 9.5ft 9s 6s 22 29 mph 1012.8mb 76f
9:50am 10ft 10s 7s 22 29 mph 1012.8mb 76f
8:50am 10ft 10s 7s 25 29 mph 1012.4mb 76f
7:50am 11ft 10s 7s 22 27 mph 1012.2mb 74f
6:50am 10.5ft 9s 7s 20 27 mph 1011.9mb 74f
5:50am 12ft 10s 7s 22 27 mph 1011.2mb 74f
4:50am 14ft 9s 7s 27 34 mph 1010.4mb 75f
3:50am 14.5ft 10s 7s 31 38 mph 1009.4mb 74f
2:50am 12.5ft 9s 7s 36 47 mph 1008.8mb 70f
1:50am 13.5ft 8s 7s 36 43 mph 1010.8mb 71f
12:50am 11ft 8s 6s 34 43 mph 1010.4mb 72f
Sun 11/23 11:50pm 11ft 8s 6s 34 43 mph 1011.7mb 73f
10:50pm 9ft 7s 6s 34 40 mph 1013.2mb 73f
9:50pm 8ft 6s 6s 31 36 mph 1014.2mb 73f
8:50pm 7ft 6s 5s 31 36 mph 1015.1mb 72f
7:50pm 6ft 6s 5s 29 36 mph 1016.2mb 71f
6:50pm 6.5ft 5s 5s 29 34 mph 1016.6mb 70f
5:50pm 6ft 6s 5s 29 34 mph 1017.1mb 70f
4:50pm 6ft 5s 5s 25 31 mph 1018.5mb 70f
3:50pm 5ft 5s 4s 20 27 mph 1019.6mb 70f
2:50pm 4.5ft 5s 4s 20 29 mph 1020.2mb 69f
1:50pm 3.5ft 4s 4s 18 20 mph 1021.2mb 70f
12:50pm 3ft 4s 4s 13 18 mph 1022.2mb 70f
11:50am 2.5ft 8s 4s 13 16 mph 1023.6mb 70f
10:50am 2.5ft 9s  -  13 16 mph 1024.8mb 70f
9:50am 2.5ft 8s 5s 16 18 mph 1025.2mb 69f
8:50am 2.5ft 8s 5s 13 16 mph 1025.6mb 69f
7:50am 2.5ft 8s 5s 9 11 mph 1025.9mb 68f